Kachkanar, Russia
Current Conditions -  °F | °C
As of 2:30 PM on Saturday 20 Dec 2014 (Local Time) from USPP Reporting Station
Light Snow Light Snow  
Wind Chill: 16°   Ceiling: 1100
Heat Index: 27°   Visibility: 6mi
Dew Point: 25°   Wind: 11mph
Humidity: 93%   Direction: 190°S
Pressure: 29.74"   Gusts: NA
Location:  58.7°N, 59.49°E
Report Text: USPP 200930Z 19005MPS 9999 -SN OVC011 M03/M04 Q1007 21290150NOSIG RMK QFE745/0993 FBL ICE INC
Loading
Personal Weather Stations






























Interactive Weather Map New forecast layout! Learn more

10-Day Weather Forecast

Advertisements
Track Severe Weather on mobile